createdAt,value
2022-12-23T00:04:17.683Z,27.94
2022-12-23T00:44:16.826Z,27.94
2022-12-23T01:04:17.575Z,27.93
2022-12-23T02:04:17.534Z,27.89
2022-12-23T05:24:17.350Z,27.88
2022-12-23T05:44:17.341Z,27.88
2022-12-23T06:04:17.367Z,27.88
2022-12-23T06:24:16.623Z,27.88
2022-12-23T06:44:17.297Z,27.88
2022-12-23T07:04:17.151Z,27.88
2022-12-23T07:24:17.260Z,27.87
2022-12-23T07:44:17.236Z,27.88
2022-12-23T08:04:17.233Z,27.89
2022-12-23T08:24:17.216Z,27.89
2022-12-23T08:44:17.183Z,27.89
2022-12-23T09:04:16.651Z,27.89
2022-12-23T09:44:16.613Z,27.98
2022-12-23T10:04:17.213Z,28.02
2022-12-23T10:24:17.119Z,28.07
2022-12-23T10:44:17.105Z,28.1
2022-12-23T11:04:17.115Z,28.14
2022-12-23T11:24:17.077Z,28.17
2022-12-23T11:44:17.078Z,28.17
2022-12-23T12:04:16.267Z,28.16
2022-12-23T12:24:19.120Z,28.15
2022-12-23T12:44:16.991Z,28.13
2022-12-23T13:24:16.982Z,28.1
2022-12-23T13:44:16.946Z,28.08
2022-12-23T14:24:16.926Z,28.06
2022-12-23T14:44:16.888Z,28.06
2022-12-23T15:04:16.911Z,28.05
2022-12-23T15:24:16.876Z,28.06
2022-12-23T15:44:16.845Z,28.11
2022-12-23T16:04:16.879Z,28.16
2022-12-23T16:24:16.829Z,28.22
2022-12-23T16:44:16.803Z,28.27
2022-12-23T17:04:16.269Z,28.3
2022-12-23T17:24:16.265Z,28.33
2022-12-23T17:44:16.767Z,28.34
2022-12-23T18:04:16.729Z,28.37
2022-12-23T18:24:16.729Z,28.39
2022-12-23T18:44:16.699Z,28.41
2022-12-23T19:04:16.545Z,28.42
2022-12-23T19:24:16.726Z,28.47
2022-12-23T19:44:15.876Z,28.51
2022-12-23T20:04:15.867Z,28.53
2022-12-23T20:24:15.832Z,28.54
2022-12-23T20:44:36.431Z,28.56
2022-12-23T21:04:16.603Z,28.55
2022-12-23T21:24:16.585Z,28.55
2022-12-23T21:44:16.517Z,28.54
2022-12-23T22:04:16.521Z,28.56
2022-12-23T22:24:16.369Z,28.58
2022-12-23T22:44:16.474Z,28.59
2022-12-23T23:04:16.495Z,28.59
2022-12-23T23:24:15.685Z,28.58
2022-12-23T23:44:16.427Z,28.56
